createdAt,value
2022-09-01T00:00:52.608Z,744
2022-09-01T00:05:54.254Z,733.74359
2022-09-01T00:10:56.122Z,677.33333
2022-09-01T00:15:57.979Z,636.13483
2022-09-01T00:20:59.947Z,613.56522
2022-09-01T00:26:02.031Z,579.05155
2022-09-01T00:31:03.727Z,579.05155
2022-09-01T00:36:05.543Z,572.57143
2022-09-01T00:41:07.749Z,553.90099
2022-09-01T00:46:09.559Z,536.30769
2022-09-01T00:51:12.013Z,536.30769
2022-09-01T00:56:14.104Z,542.05825
2022-09-01T01:01:16.140Z,572.57143
2022-09-01T01:06:18.054Z,613.56522
2022-09-01T01:11:20.832Z,613.56522
2022-09-01T01:16:22.330Z,628.44444
2022-09-01T01:21:24.107Z,620.92308
2022-09-01T01:26:26.027Z,599.31915
2022-09-01T01:31:27.810Z,613.56522
2022-09-01T01:36:29.239Z,620.92308
2022-09-01T01:41:31.071Z,599.31915
2022-09-01T01:46:32.899Z,579.05155
2022-09-01T01:51:34.566Z,547.92157
2022-09-01T01:56:36.485Z,530.66667
2022-09-01T02:01:38.290Z,525.13208
2022-09-01T02:06:40.187Z,553.90099
2022-09-01T02:11:42.952Z,560
2022-09-01T02:16:44.933Z,620.92308
2022-09-01T02:21:46.436Z,592.42105
2022-09-01T02:26:48.481Z,636.13483
2022-09-01T02:31:50.004Z,660.27907
2022-09-01T02:36:51.615Z,644
2022-09-01T02:41:53.721Z,652.04598
2022-09-01T02:46:55.234Z,644
2022-09-01T02:51:57.585Z,585.66667
2022-09-01T02:56:59.564Z,592.42105
2022-09-01T03:02:01.484Z,579.05155
2022-09-01T03:07:03.201Z,599.31915
2022-09-01T03:12:05.698Z,636.13483
2022-09-01T03:17:07.529Z,620.92308
2022-09-01T03:22:08.981Z,620.92308
2022-09-01T03:27:10.866Z,606.36559
2022-09-01T03:32:12.588Z,613.56522
2022-09-01T03:37:14.565Z,613.56522
2022-09-01T03:42:16.359Z,628.44444
2022-09-01T03:47:18.298Z,606.36559
2022-09-01T03:52:20.150Z,620.92308
2022-09-01T03:57:21.796Z,620.92308
2022-09-01T04:02:23.307Z,620.92308
2022-09-01T04:07:26.946Z,613.56522
2022-09-01T04:12:29.027Z,606.36559
2022-09-01T04:17:30.772Z,606.36559
2022-09-01T04:22:32.894Z,530.66667
2022-09-01T04:27:34.765Z,579.05155
2022-09-01T04:32:36.822Z,553.90099
2022-09-01T04:37:38.946Z,572.57143
2022-09-01T04:42:41.170Z,572.57143
2022-09-01T04:47:43.389Z,560
2022-09-01T04:52:45.186Z,547.92157
2022-09-01T04:57:47.023Z,547.92157
2022-09-01T05:02:48.778Z,547.92157
2022-09-01T05:07:55.286Z,553.90099
2022-09-01T05:12:57.535Z,566.22222
2022-09-01T05:17:59.344Z,566.22222
2022-09-01T05:23:01.811Z,566.22222
2022-09-01T05:28:03.818Z,572.57143
2022-09-01T05:33:05.527Z,560
2022-09-01T05:38:07.479Z,553.90099
2022-09-01T05:43:09.843Z,566.22222
2022-09-01T05:48:11.804Z,572.57143
2022-09-01T05:53:13.575Z,560
2022-09-01T05:58:16.075Z,530.66667
2022-09-01T06:03:17.825Z,519.70093
2022-09-01T06:08:19.908Z,504
2022-09-01T06:13:22.267Z,514.37037
2022-09-01T06:18:29.225Z,479.65217
2022-09-01T06:23:30.682Z,457.33333
2022-09-01T06:28:32.529Z,453.09091
2022-09-01T06:33:33.941Z,484.35088
2022-09-01T06:38:35.727Z,509.13761
2022-09-01T06:43:37.911Z,519.70093
2022-09-01T06:48:39.780Z,530.66667
2022-09-01T06:53:41.950Z,525.13208
2022-09-01T06:58:43.880Z,547.92157
2022-09-01T07:03:45.896Z,542.05825
2022-09-01T07:14:20.356Z,542.05825
2022-09-01T07:19:22.413Z,572.57143
2022-09-01T07:24:29.407Z,553.90099
2022-09-01T07:29:33.269Z,547.92157
2022-09-01T07:34:39.058Z,585.66667
2022-09-01T07:39:48.606Z,566.22222
2022-09-01T07:44:51.597Z,579.05155
2022-09-01T07:50:24.143Z,620.92308
2022-09-01T07:55:26.582Z,644
2022-09-01T08:00:31.134Z,636.13483
2022-09-01T08:05:33.867Z,636.13483
2022-09-01T08:10:36.882Z,695.21951
2022-09-01T08:15:41.375Z,677.33333
2022-09-01T08:21:08.431Z,677.33333
2022-09-01T08:26:10.643Z,723.74684
2022-09-01T08:31:12.889Z,704.49383
2022-09-01T08:36:14.856Z,704.49383
2022-09-01T08:41:16.984Z,733.74359
2022-09-01T08:46:19.420Z,765.33333
2022-09-01T08:51:21.395Z,733.74359
2022-09-01T08:56:23.464Z,733.74359
2022-09-01T09:01:24.999Z,799.55556
2022-09-01T09:06:26.483Z,799.55556
2022-09-01T09:11:28.057Z,836.75362
2022-09-01T09:16:30.182Z,877.33333
2022-09-01T09:21:31.788Z,849.88235
2022-09-01T09:26:42.664Z,891.69231
2022-09-01T09:31:45.882Z,863.40299
2022-09-01T09:36:54.516Z,877.33333
2022-09-01T09:41:57.792Z,937.54839
2022-09-01T09:47:00.699Z,1044
2022-09-01T09:52:02.533Z,937.54839
2022-09-01T09:57:04.860Z,953.83607
2022-09-01T10:02:06.717Z,1006.06897
2022-09-01T10:07:08.658Z,988.0678
2022-09-01T10:12:10.623Z,953.83607
2022-09-01T10:17:13.203Z,988.0678
2022-09-01T10:22:16.909Z,953.83607
2022-09-01T10:27:18.793Z,970.66667
2022-09-01T10:32:35.063Z,1006.06897
2022-09-01T10:37:39.156Z,970.66667
2022-09-01T10:42:45.323Z,937.54839
2022-09-01T10:47:48.112Z,1006.06897
2022-09-01T10:52:51.239Z,988.0678
2022-09-01T10:57:53.390Z,1044
2022-09-01T11:02:55.262Z,1024.70175
2022-09-01T11:08:01.303Z,970.66667
2022-09-01T11:13:03.897Z,1044
2022-09-01T11:18:06.847Z,1064
2022-09-01T11:23:08.312Z,1064
2022-09-01T11:28:10.654Z,1106.26415
2022-09-01T11:33:12.265Z,1106.26415
2022-09-01T11:38:13.934Z,1227.33333
2022-09-01T11:43:16.582Z,1283.13043
2022-09-01T11:48:18.962Z,1227.33333
2022-09-01T11:53:20.520Z,1201.14286
2022-09-01T11:58:22.346Z,1201.14286
2022-09-01T12:03:24.398Z,1227.33333
2022-09-01T12:08:26.640Z,1312.88889
2022-09-01T12:13:28.134Z,1254.6383
2022-09-01T12:18:30.166Z,1254.6383
2022-09-01T12:23:31.708Z,1344
2022-09-01T12:28:33.280Z,1344
2022-09-01T12:33:35.312Z,1312.88889
2022-09-01T12:38:37.265Z,1376.55814
2022-09-01T12:43:38.727Z,1446.43902
2022-09-01T12:48:40.435Z,1523.48718
2022-09-01T12:53:42.588Z,1484
2022-09-01T12:58:44.169Z,1523.48718
2022-09-01T13:03:45.752Z,1410.66667
2022-09-01T13:08:47.351Z,1446.43902
2022-09-01T13:13:48.791Z,1523.48718
2022-09-01T13:19:11.802Z,1608.86486
2022-09-01T13:24:14.756Z,1484
2022-09-01T13:29:16.778Z,1565.05263
2022-09-01T13:34:18.667Z,1484
2022-09-01T13:39:25.462Z,1446.43902
2022-09-01T13:44:27.065Z,1312.88889
2022-09-01T13:50:06.100Z,1376.55814
2022-09-01T13:55:09.503Z,1254.6383
2022-09-01T14:00:11.619Z,1283.13043
2022-09-01T14:05:13.449Z,1376.55814
2022-09-01T14:10:15.212Z,1410.66667
2022-09-01T14:15:18.065Z,1484
2022-09-01T14:20:22.827Z,1312.88889
2022-09-01T14:25:24.786Z,1410.66667
2022-09-01T14:30:31.011Z,1283.13043
2022-09-01T14:35:33.662Z,1283.13043
2022-09-01T14:40:35.910Z,1227.33333
2022-09-01T14:45:37.453Z,1344
2022-09-01T14:50:39.843Z,1312.88889
2022-09-01T14:55:44.133Z,1283.13043
2022-09-01T15:00:46.090Z,1312.88889
2022-09-01T15:05:48.019Z,1283.13043
2022-09-01T15:10:49.909Z,1312.88889
2022-09-01T15:15:51.843Z,1128.61538
2022-09-01T15:20:53.553Z,906.5
2022-09-01T15:25:55.226Z,1106.26415
2022-09-01T15:30:56.996Z,811.60563
2022-09-01T15:35:58.825Z,891.69231
2022-09-01T15:41:00.635Z,863.40299
2022-09-01T15:46:02.477Z,799.55556
2022-09-01T15:51:04.596Z,877.33333
2022-09-01T15:56:06.291Z,824
2022-09-01T16:01:08.393Z,776.43243
2022-09-01T16:06:10.479Z,836.75362
2022-09-01T16:11:12.282Z,811.60563
2022-09-01T16:16:14.332Z,799.55556
2022-09-01T16:21:17.074Z,787.83562
2022-09-01T16:26:18.863Z,744
2022-09-01T16:31:20.696Z,733.74359
2022-09-01T16:36:22.224Z,628.44444
2022-09-01T16:41:23.901Z,592.42105
2022-09-01T16:46:25.911Z,566.22222
2022-09-01T16:51:28.218Z,536.30769
2022-09-01T16:56:29.793Z,519.70093
2022-09-01T17:01:31.309Z,494
2022-09-01T17:06:32.969Z,475.03448
2022-09-01T17:11:34.512Z,494
2022-09-01T17:16:36.019Z,479.65217
2022-09-01T17:21:37.862Z,519.70093
2022-09-01T17:26:39.454Z,530.66667
2022-09-01T17:31:41.274Z,636.13483
2022-09-01T17:36:46.823Z,566.22222
2022-09-01T17:41:48.661Z,560
2022-09-01T17:46:50.449Z,620.92308
2022-09-01T17:51:52.290Z,613.56522
2022-09-01T17:56:53.911Z,636.13483
2022-09-01T18:01:55.524Z,636.13483
2022-09-01T18:06:57.308Z,660.27907
2022-09-01T18:11:58.849Z,644
2022-09-01T18:17:00.603Z,620.92308
2022-09-01T18:22:03.432Z,668.70588
2022-09-01T18:27:04.859Z,723.74684
2022-09-01T18:32:06.599Z,824
2022-09-01T18:37:08.143Z,891.69231
2022-09-01T18:42:09.653Z,863.40299
2022-09-01T18:47:13.684Z,891.69231
2022-09-01T18:52:16.001Z,891.69231
2022-09-01T18:57:17.516Z,863.40299
2022-09-01T19:02:19.699Z,824
2022-09-01T19:07:21.772Z,824
2022-09-01T19:12:23.597Z,836.75362
2022-09-01T19:17:25.188Z,787.83562
2022-09-01T19:22:27.074Z,723.74684
2022-09-01T19:27:28.543Z,686.16867
2022-09-01T19:32:30.272Z,668.70588
2022-09-01T19:37:31.950Z,613.56522
2022-09-01T19:42:33.456Z,636.13483
2022-09-01T19:47:35.148Z,652.04598
2022-09-01T19:52:37.191Z,636.13483
2022-09-01T19:57:38.644Z,636.13483
2022-09-01T20:02:40.393Z,636.13483
2022-09-01T20:07:42.319Z,636.13483
2022-09-01T20:12:44.357Z,636.13483
2022-09-01T20:17:46.089Z,668.70588
2022-09-01T20:22:48.059Z,494
2022-09-01T20:27:49.816Z,723.74684
2022-09-01T20:32:51.729Z,723.74684
2022-09-01T20:37:53.785Z,599.31915
2022-09-01T20:42:55.651Z,620.92308
2022-09-01T20:47:58.023Z,628.44444
2022-09-01T20:53:00.793Z,636.13483
2022-09-01T20:58:02.336Z,628.44444
2022-09-01T21:03:04.324Z,628.44444
2022-09-01T21:08:06.402Z,644
2022-09-01T21:13:08.112Z,644
2022-09-01T21:18:09.974Z,628.44444
2022-09-01T21:23:12.615Z,613.56522
2022-09-01T21:28:14.197Z,644
2022-09-01T21:33:15.951Z,620.92308
2022-09-01T21:38:17.821Z,636.13483
2022-09-01T21:43:19.773Z,636.13483
2022-09-01T21:48:21.645Z,613.56522
2022-09-01T21:53:24.691Z,620.92308
2022-09-01T21:58:26.657Z,636.13483
2022-09-01T22:03:28.124Z,636.13483
2022-09-01T22:08:29.975Z,628.44444
2022-09-01T22:13:31.595Z,660.27907
2022-09-01T22:18:33.328Z,613.56522
2022-09-01T22:23:35.187Z,553.90099
2022-09-01T22:28:37.026Z,519.70093
2022-09-01T22:33:38.734Z,504
2022-09-01T22:38:40.643Z,509.13761
2022-09-01T22:43:42.127Z,498.95495
2022-09-01T22:48:43.847Z,489.13274
2022-09-01T22:53:45.882Z,489.13274
2022-09-01T22:58:48.227Z,479.65217
2022-09-01T23:03:49.993Z,479.65217
2022-09-01T23:08:54.115Z,479.65217
2022-09-01T23:13:55.770Z,475.03448
2022-09-01T23:18:58.176Z,479.65217
2022-09-01T23:24:00.271Z,489.13274
2022-09-01T23:29:02.141Z,494
2022-09-01T23:34:03.987Z,504
2022-09-01T23:39:05.788Z,553.90099
2022-09-01T23:44:07.558Z,547.92157
2022-09-01T23:49:09.369Z,677.33333
2022-09-01T23:54:11.388Z,704.49383
2022-09-01T23:59:13.369Z,714
